Time;durP1;ratioP1;P1;durP2;ratioP2;P2;SDS_P1;SDS_P2;PMS_P1;PMS_P2;Temp;Humidity;BMP_temperature;BMP_pressure;BME280_temperature;BME280_humidity;BME280_pressure;Samples;Min_cycle;Max_cycle;Signal;HPM_P1;HPM_P2
2023/02/19 00:02:54;;;;;;;26.08;14.13;;;13.30;94.90;;;;;;5037191;28;20049;-80
2023/02/19 00:06:07;;;;;;;27.60;14.00;;;13.30;95.10;;;;;;5035264;28;20049;-81
2023/02/19 00:09:14;;;;;;;23.27;14.13;;;13.30;95.20;;;;;;5036694;28;20063;-80
2023/02/19 00:12:17;;;;;;;23.65;12.90;;;12.20;94.90;;;;;;5034909;28;20515;-79
2023/02/19 00:15:22;;;;;;;23.90;13.70;;;10.90;94.60;;;;;;5033020;28;20127;-81
2023/02/19 00:18:26;;;;;;;22.30;12.27;;;13.30;95.30;;;;;;5034347;28;20385;-79
2023/02/19 00:21:30;;;;;;;17.90;11.25;;;13.20;95.30;;;;;;5029946;28;20615;-80
2023/02/19 00:24:34;;;;;;;17.33;10.38;;;13.30;95.30;;;;;;5030783;28;20396;-80
2023/02/19 00:27:38;;;;;;;17.75;9.43;;;14.10;95.70;;;;;;5030487;28;20040;-80
2023/02/19 00:30:42;;;;;;;16.00;9.02;;;13.40;95.70;;;;;;5030262;28;20049;-80
2023/02/19 00:33:49;;;;;;;14.90;7.90;;;13.40;95.60;;;;;;5029957;28;20049;-80
2023/02/19 00:36:53;;;;;;;16.13;8.30;;;;;;;;;;5030627;28;20061;-80
2023/02/19 00:39:57;;;;;;;13.57;9.05;;;14.90;96.20;;;;;;5029893;28;20623;-80
2023/02/19 00:43:01;;;;;;;15.73;8.95;;;13.30;96.10;;;;;;5032977;28;20056;-80
2023/02/19 00:46:05;;;;;;;14.77;8.63;;;14.60;96.50;;;;;;5033394;28;20048;-80
2023/02/19 00:49:19;;;;;;;15.95;8.23;;;13.70;96.40;;;;;;5032416;28;20404;-79
2023/02/19 00:52:22;;;;;;;14.02;8.82;;;13.30;96.50;;;;;;5032173;28;20460;-80
2023/02/19 00:55:27;;;;;;;15.95;8.85;;;13.40;96.50;;;;;;5032882;28;20041;-80
2023/02/19 00:58:31;;;;;;;18.90;8.65;;;13.30;96.70;;;;;;5033251;28;20049;-80
2023/02/19 01:01:36;;;;;;;15.40;9.13;;;12.60;96.70;;;;;;5031004;28;20504;-80
2023/02/19 01:04:40;;;;;;;17.67;8.85;;;13.40;97.00;;;;;;5034443;28;20053;-80
2023/02/19 01:07:44;;;;;;;14.85;8.98;;;13.40;97.10;;;;;;5034182;28;20389;-80
2023/02/19 01:10:49;;;;;;;15.85;8.77;;;12.00;96.80;;;;;;5035592;28;20044;-80
2023/02/19 01:13:57;;;;;;;17.38;9.20;;;13.40;97.20;;;;;;5034047;28;20049;-78
2023/02/19 01:17:01;;;;;;;14.60;9.48;;;11.80;97.10;;;;;;5033894;28;20630;-78
2023/02/19 01:20:05;;;;;;;18.67;9.05;;;13.40;97.50;;;;;;5033944;28;20056;-78
2023/02/19 01:23:11;;;;;;;16.42;10.55;;;13.40;97.60;;;;;;5033072;28;20044;-77
2023/02/19 01:26:17;;;;;;;13.32;10.55;;;11.60;97.20;;;;;;5032421;28;20048;-78
2023/02/19 01:29:22;;;;;;;19.50;11.00;;;13.40;97.70;;;;;;5032542;28;20064;-78
2023/02/19 01:32:26;;;;;;;20.55;12.00;;;13.40;97.80;;;;;;5032751;28;20053;-79
2023/02/19 01:35:30;;;;;;;21.35;11.80;;;13.40;97.90;;;;;;5032228;28;20397;-78
2023/02/19 01:38:35;;;;;;;17.25;11.65;;;13.40;98.00;;;;;;5031609;28;20053;-78
2023/02/19 01:41:40;;;;;;;24.27;11.18;;;13.40;97.90;;;;;;5032977;28;20045;-78
2023/02/19 01:44:44;;;;;;;15.65;10.68;;;13.60;98.10;;;;;;5032443;28;20053;-77
2023/02/19 01:48:00;;;;;;;16.08;11.10;;;14.00;98.20;;;;;;5031433;28;20049;-78
2023/02/19 01:51:13;;;;;;;22.40;10.82;;;13.80;98.00;;;;;;5019781;28;20048;-78
2023/02/19 01:54:22;;;;;;;18.73;11.25;;;13.20;98.10;;;;;;5030898;28;20053;-78
2023/02/19 01:57:32;;;;;;;17.27;10.75;;;13.50;98.00;;;;;;5031560;28;20444;-77
2023/02/19 02:00:37;;;;;;;20.10;12.30;;;14.80;98.40;;;;;;5030840;28;20118;-77
2023/02/19 02:03:45;;;;;;;22.65;11.63;;;11.90;97.60;;;;;;5031473;28;20052;-78
2023/02/19 02:06:53;;;;;;;19.95;11.60;;;13.20;98.00;;;;;;5031223;28;20040;-78
2023/02/19 02:13:21;;;;;;;19.00;11.65;;;13.00;98.10;;;;;;5031209;28;20056;-78
2023/02/19 02:16:34;;;;;;;17.73;11.80;;;13.00;98.20;;;;;;5032016;28;20048;-78
2023/02/19 02:19:57;;;;;;;15.75;11.88;;;12.90;98.20;;;;;;5030885;28;20191;-79
2023/02/19 02:23:11;;;;;;;17.13;12.30;;;12.80;98.40;;;;;;5030984;28;20049;-78
2023/02/19 02:26:15;;;;;;;20.38;12.95;;;9.30;97.70;;;;;;5031152;28;20045;-78
2023/02/19 02:29:37;;;;;;;18.42;10.95;;;13.00;98.50;;;;;;5030633;28;20044;-78
2023/02/19 02:32:56;;;;;;;24.08;11.82;;;12.90;98.50;;;;;;5031519;28;20049;-77
2023/02/19 02:36:07;;;;;;;23.40;11.88;;;13.00;98.60;;;;;;5019745;28;20037;-78
2023/02/19 02:39:16;;;;;;;19.13;11.38;;;13.30;98.60;;;;;;5030532;28;20052;-79
2023/02/19 02:42:26;;;;;;;15.65;12.05;;;;;;;;;;5031847;28;20049;-78
2023/02/19 02:45:40;;;;;;;26.00;13.40;;;15.80;99.50;;;;;;5032243;28;20049;-79
2023/02/19 02:49:04;;;;;;;20.35;13.50;;;12.80;98.80;;;;;;5032550;28;20043;-77
2023/02/19 02:55:01;;;;;;;20.50;13.05;;;13.10;99.10;;;;;;5029522;28;20080;-78
2023/02/19 02:55:37;;;;;;;20.67;14.02;;;;;;;;;;5029318;28;20045;-78
2023/02/19 02:58:41;;;;;;;25.05;13.98;;;;;;;;;;5030640;28;20041;-78
2023/02/19 03:02:17;;;;;;;21.73;15.38;;;12.90;99.10;;;;;;5018972;28;20044;-79
2023/02/19 03:08:49;;;;;;;30.20;17.42;;;10.60;98.60;;;;;;5029762;28;20061;-78
2023/02/19 03:22:16;;;;;;;26.65;18.45;;;12.80;98.50;;;;;;5029370;28;20040;-79
2023/02/19 03:32:22;;;;;;;29.17;20.23;;;12.60;98.90;;;;;;5028796;28;20060;-78
2023/02/19 03:35:30;;;;;;;35.15;22.45;;;12.60;98.90;;;;;;5029126;28;20049;-78
2023/02/19 03:38:50;;;;;;;31.92;21.48;;;12.10;98.90;;;;;;5028791;28;20052;-79
2023/02/19 03:41:55;;;;;;;31.92;22.90;;;;;;;;;;5029063;28;20056;-78
2023/02/19 03:45:21;;;;;;;32.28;22.40;;;11.40;98.60;;;;;;5029098;28;20500;-78
2023/02/19 03:48:47;;;;;;;35.92;23.27;;;12.80;98.60;;;;;;5028799;28;20044;-79
2023/02/19 03:52:08;;;;;;;32.80;23.20;;;14.80;98.90;;;;;;5017548;28;20369;-78
2023/02/19 03:55:12;;;;;;;31.67;21.55;;;;;;;;;;5028800;28;20469;-79
2023/02/19 03:58:34;;;;;;;35.75;21.55;;;13.10;98.40;;;;;;5028919;28;20036;-80
2023/02/19 04:01:54;;;;;;;32.35;20.67;;;12.80;98.40;;;;;;5029057;28;20056;-79
2023/02/19 04:05:13;;;;;;;31.58;20.40;;;12.70;98.40;;;;;;5029797;28;20393;-79
2023/02/19 04:08:21;;;;;;;34.20;22.60;;;12.80;98.50;;;;;;5028951;28;20065;-79
2023/02/19 04:11:32;;;;;;;30.45;20.63;;;12.70;98.70;;;;;;5028669;28;20068;-79
2023/02/19 04:14:59;;;;;;;30.25;20.02;;;12.70;98.90;;;;;;5017562;28;20492;-79
2023/02/19 04:18:07;;;;;;;31.83;20.38;;;13.20;98.90;;;;;;5029460;28;20052;-79
2023/02/19 04:21:13;;;;;;;33.10;18.90;;;12.40;98.60;;;;;;5029250;28;20152;-79
2023/02/19 04:24:23;;;;;;;27.98;17.45;;;14.80;99.30;;;;;;5029149;28;20036;-79
2023/02/19 04:27:27;;;;;;;28.10;17.08;;;12.90;98.80;;;;;;5029159;28;20053;-79
2023/02/19 04:30:31;;;;;;;25.13;16.85;;;;;;;;;;5029355;28;20044;-79
2023/02/19 04:33:36;;;;;;;30.80;17.45;;;12.80;98.80;;;;;;5029072;28;20052;-79
2023/02/19 04:36:40;;;;;;;26.08;18.08;;;;;;;;;;5028967;28;20503;-79
2023/02/19 04:39:45;;;;;;;26.83;18.65;;;;;;;;;;5032773;28;20060;-79
2023/02/19 04:42:49;;;;;;;25.70;17.70;;;;;;;;;;5031924;28;20048;-79
2023/02/19 04:45:53;;;;;;;26.17;18.25;;;;;;;;;;5020060;28;20048;-79
2023/02/19 04:48:57;;;;;;;29.63;18.38;;;12.50;99.20;;;;;;5032723;28;20040;-78
2023/02/19 04:52:02;;;;;;;27.67;18.23;;;;;;;;;;5032374;28;20056;-79
2023/02/19 04:55:06;;;;;;;30.00;18.17;;;12.60;99.40;;;;;;5032819;28;20048;-79
2023/02/19 04:58:10;;;;;;;31.98;18.15;;;12.60;99.50;;;;;;5032326;28;20057;-78
2023/02/19 05:01:14;;;;;;;27.08;17.48;;;12.60;99.40;;;;;;5031947;28;20041;-78
2023/02/19 05:04:18;;;;;;;24.23;17.65;;;;;;;;;;5032374;28;20056;-78
2023/02/19 05:07:23;;;;;;;30.40;18.40;;;;;;;;;;5032197;28;20068;-77
2023/02/19 05:10:27;;;;;;;31.48;18.75;;;;;;;;;;5032512;28;20365;-79
2023/02/19 05:13:31;;;;;;;32.30;18.05;;;;;;;;;;5032002;28;20057;-78
2023/02/19 05:16:35;;;;;;;28.65;17.67;;;10.90;98.80;;;;;;5032245;28;20047;-79
2023/02/19 05:19:39;;;;;;;30.23;18.92;;;12.80;99.40;;;;;;5032288;28;20590;-78
2023/02/19 05:22:43;;;;;;;26.50;17.67;;;;;;;;;;5031645;28;20036;-79
2023/02/19 05:25:48;;;;;;;28.05;18.50;;;;;;;;;;5032620;28;20044;-78
2023/02/19 05:28:53;;;;;;;25.17;18.00;;;12.90;99.50;;;;;;5031925;28;20056;-78
2023/02/19 05:31:57;;;;;;;26.17;18.15;;;13.20;99.70;;;;;;5032208;28;20404;-77
2023/02/19 05:35:01;;;;;;;31.00;20.10;;;13.30;99.90;;;;;;5030503;28;20405;-78
2023/02/19 05:38:06;;;;;;;36.67;19.27;;;12.60;99.80;;;;;;5030277;28;20044;-78
2023/02/19 05:41:21;;;;;;;31.23;19.80;;;12.60;99.60;;;;;;5030516;28;20519;-79
2023/02/19 05:44:25;;;;;;;32.25;18.95;;;;;;;;;;5030576;28;20488;-79
2023/02/19 05:47:29;;;;;;;32.10;20.05;;;12.90;99.90;;;;;;5030466;28;20037;-79
2023/02/19 05:50:35;;;;;;;31.65;19.85;;;13.50;99.90;;;;;;5028948;28;20577;-79
2023/02/19 05:53:49;;;;;;;34.35;20.85;;;;;;;;;;5030344;28;20056;-77
2023/02/19 05:56:53;;;;;;;31.50;20.67;;;;;;;;;;5030464;28;20041;-79
2023/02/19 05:59:57;;;;;;;25.30;19.80;;;;;;;;;;5030544;28;20381;-78
2023/02/19 06:03:01;;;;;;;30.10;19.98;;;;;;;;;;5029573;28;20048;-79
2023/02/19 06:06:06;;;;;;;35.63;21.20;;;;;;;;;;5030433;28;20053;-79
2023/02/19 06:09:10;;;;;;;30.98;20.58;;;12.40;99.90;;;;;;5030455;28;20036;-78
2023/02/19 06:12:15;;;;;;;33.00;20.98;;;;;;;;;;5029801;28;20065;-78
2023/02/19 06:15:19;;;;;;;37.80;20.40;;;;;;;;;;5017889;28;20052;-79
2023/02/19 06:18:23;;;;;;;42.03;22.58;;;12.40;99.90;;;;;;5030215;28;20040;-78
2023/02/19 06:21:27;;;;;;;39.78;21.85;;;12.30;99.90;;;;;;5029984;28;20064;-78
2023/02/19 06:24:31;;;;;;;38.90;22.08;;;13.00;99.90;;;;;;5029969;28;20045;-79
2023/02/19 06:27:36;;;;;;;39.20;21.30;;;;;;;;;;5029994;28;20040;-78
2023/02/19 06:30:40;;;;;;;32.53;21.15;;;;;;;;;;5029772;28;20060;-77
2023/02/19 06:33:44;;;;;;;31.17;20.73;;;;;;;;;;5029635;28;20412;-78
2023/02/19 06:36:49;;;;;;;34.60;21.02;;;12.40;99.90;;;;;;5030146;28;20049;-78
2023/02/19 06:39:53;;;;;;;33.92;20.95;;;;;;;;;;5029825;28;20510;-79
2023/02/19 06:42:57;;;;;;;32.88;20.95;;;;;;;;;;5029823;28;20111;-77
2023/02/19 06:46:03;;;;;;;32.78;20.60;;;12.60;99.90;;;;;;5029792;28;20389;-79
2023/02/19 06:49:07;;;;;;;30.17;20.52;;;;;;;;;;5029498;28;20041;-79
2023/02/19 06:52:11;;;;;;;35.17;20.63;;;15.20;99.90;;;;;;5029413;28;20405;-78
2023/02/19 06:55:16;;;;;;;32.97;21.17;;;;;;;;;;5029399;28;20041;-78
2023/02/19 06:58:20;;;;;;;33.05;21.45;;;15.00;99.90;;;;;;5029964;28;20056;-78
2023/02/19 07:01:25;;;;;;;31.98;21.42;;;14.00;99.90;;;;;;5029071;28;20048;-78
2023/02/19 07:04:29;;;;;;;30.60;20.13;;;15.70;99.90;;;;;;5029710;28;20056;-79
2023/02/19 07:07:33;;;;;;;31.27;19.30;;;11.60;99.90;;;;;;5030483;28;20045;-78
2023/02/19 07:10:38;;;;;;;28.95;19.63;;;;;;;;;;5029483;28;20040;-79
2023/02/19 07:13:42;;;;;;;32.30;20.88;;;;;;;;;;5029343;28;20052;-79
2023/02/19 07:16:47;;;;;;;32.45;20.23;;;13.80;99.90;;;;;;5029278;28;20044;-76
2023/02/19 07:19:51;;;;;;;32.53;19.88;;;;;;;;;;5029629;28;20546;-79
2023/02/19 07:22:56;;;;;;;30.73;19.77;;;12.70;99.90;;;;;;5029582;28;20062;-78
2023/02/19 07:26:00;;;;;;;30.90;18.70;;;;;;;;;;5028508;28;20052;-79
2023/02/19 07:29:05;;;;;;;26.75;19.13;;;;;;;;;;5030534;28;20060;-80
2023/02/19 07:32:12;;;;;;;28.73;19.92;;;14.10;99.90;;;;;;5029358;28;20044;-78
2023/02/19 07:35:16;;;;;;;27.20;20.52;;;;;;;;;;5028973;28;20393;-78
2023/02/19 07:38:21;;;;;;;34.53;20.40;;;12.90;99.90;;;;;;5029072;28;20532;-77
2023/02/19 07:41:26;;;;;;;31.00;21.27;;;9.70;99.90;;;;;;5028608;28;20048;-77
2023/02/19 07:44:34;;;;;;;32.42;22.33;;;;;;;;;;5028041;28;20074;-78
2023/02/19 07:47:39;;;;;;;32.80;21.98;;;;;;;;;;5028872;28;20048;-77
2023/02/19 07:50:54;;;;;;;39.70;23.10;;;13.00;99.90;;;;;;5028754;28;20508;-78
2023/02/19 07:53:59;;;;;;;34.90;23.27;;;;;;;;;;5029362;28;20080;-78
2023/02/19 07:57:03;;;;;;;38.92;24.02;;;;;;;;;;5028888;28;20045;-80
2023/02/19 08:00:08;;;;;;;38.90;25.02;;;11.80;99.90;;;;;;5029655;28;20389;-80
2023/02/19 08:03:16;;;;;;;39.88;24.75;;;14.10;99.90;;;;;;5028857;28;20401;-78
2023/02/19 08:06:21;;;;;;;37.92;24.25;;;;;;;;;;5028528;28;20048;-79
2023/02/19 08:09:25;;;;;;;34.42;24.08;;;13.30;99.90;;;;;;5029306;28;20057;-79
2023/02/19 08:15:53;;;;;;;40.70;23.33;;;13.10;99.90;;;;;;5028547;28;20057;-79
2023/02/19 08:18:57;;;;;;;38.83;23.75;;;13.10;99.90;;;;;;5028504;28;20388;-79
2023/02/19 08:22:01;;;;;;;36.30;23.33;;;11.60;99.90;;;;;;5028018;28;20044;-78
2023/02/19 08:25:06;;;;;;;35.83;24.10;;;13.10;99.90;;;;;;5028775;28;20518;-79
2023/02/19 08:28:10;;;;;;;32.50;23.05;;;13.20;99.90;;;;;;5029332;28;20040;-79
2023/02/19 08:31:14;;;;;;;33.72;22.50;;;13.30;99.90;;;;;;5028041;28;20045;-78
2023/02/19 08:34:18;;;;;;;33.75;22.27;;;13.60;99.90;;;;;;5028965;28;20052;-78
2023/02/19 08:37:22;;;;;;;33.92;22.85;;;14.20;99.90;;;;;;5029221;28;20052;-79
2023/02/19 08:40:26;;;;;;;33.88;20.77;;;11.20;99.90;;;;;;5028049;28;20060;-79
2023/02/19 08:43:30;;;;;;;30.67;18.02;;;13.20;99.90;;;;;;5028169;28;20052;-79
2023/02/19 08:46:34;;;;;;;29.52;18.02;;;16.70;99.90;;;;;;5028999;28;20048;-80
2023/02/19 08:49:38;;;;;;;23.08;14.50;;;13.50;99.90;;;;;;5028611;28;20048;-78
2023/02/19 08:52:42;;;;;;;22.30;14.68;;;13.90;99.90;;;;;;5029303;28;20052;-78
2023/02/19 08:55:46;;;;;;;22.88;15.65;;;13.50;99.90;;;;;;5028371;28;20045;-78
2023/02/19 08:58:50;;;;;;;24.98;17.92;;;13.50;99.90;;;;;;5027227;28;20053;-79
2023/02/19 09:01:54;;;;;;;28.38;17.55;;;13.60;99.90;;;;;;5026606;28;20053;-79
2023/02/19 09:04:58;;;;;;;37.35;21.63;;;13.80;99.90;;;;;;5027982;28;20065;-79
2023/02/19 09:08:02;;;;;;;35.10;21.23;;;13.60;99.90;;;;;;5027476;28;20045;-77
2023/02/19 09:11:06;;;;;;;39.88;24.30;;;13.70;99.90;;;;;;5027895;28;20052;-78
2023/02/19 09:14:10;;;;;;;28.33;19.88;;;13.70;99.90;;;;;;5027544;28;20060;-78
2023/02/19 09:17:14;;;;;;;23.67;16.23;;;13.80;99.90;;;;;;5028081;28;20139;-79
2023/02/19 09:20:18;;;;;;;26.88;16.40;;;13.80;99.90;;;;;;5027739;28;20056;-78
2023/02/19 09:23:22;;;;;;;28.70;16.00;;;13.70;99.90;;;;;;5028152;28;20049;-78
2023/02/19 09:26:26;;;;;;;27.27;15.80;;;13.80;99.90;;;;;;5031054;28;20056;-79
2023/02/19 09:29:30;;;;;;;28.33;15.95;;;13.70;99.90;;;;;;5030679;28;20060;-78
2023/02/19 09:32:34;;;;;;;25.80;16.25;;;13.80;99.90;;;;;;5030450;28;20061;-80
2023/02/19 09:35:39;;;;;;;22.40;15.85;;;13.10;99.90;;;;;;5030860;28;20427;-79
2023/02/19 09:38:44;;;;;;;26.80;16.90;;;13.90;99.90;;;;;;5030914;28;20048;-79
2023/02/19 09:41:58;;;;;;;22.40;14.43;;;14.10;99.90;;;;;;5030776;28;20405;-78
2023/02/19 09:45:04;;;;;;;21.08;13.90;;;14.00;99.90;;;;;;5030199;28;20045;-80
2023/02/19 09:48:10;;;;;;;24.10;13.98;;;14.00;99.90;;;;;;5030830;28;20045;-78
2023/02/19 09:51:16;;;;;;;17.70;12.35;;;14.00;99.90;;;;;;5030673;28;20052;-79
2023/02/19 09:54:26;;;;;;;21.27;13.60;;;14.10;99.90;;;;;;5029452;28;20056;-80
2023/02/19 09:57:34;;;;;;;14.40;11.98;;;14.10;99.90;;;;;;5030337;28;20040;-79
2023/02/19 10:00:38;;;;;;;17.50;12.10;;;14.10;99.90;;;;;;5029937;28;20056;-78
2023/02/19 10:03:48;;;;;;;19.65;11.38;;;14.10;99.90;;;;;;5030139;28;20041;-79
2023/02/19 10:06:57;;;;;;;19.30;12.23;;;14.10;99.90;;;;;;5030824;28;20057;-78
2023/02/19 10:10:21;;;;;;;14.20;10.88;;;14.20;99.90;;;;;;5030498;28;20048;-79
2023/02/19 10:13:50;;;;;;;23.17;14.98;;;14.30;99.90;;;;;;5029251;28;20053;-79
2023/02/19 10:16:59;;;;;;;18.08;12.70;;;14.30;99.90;;;;;;5030118;28;20415;-79
2023/02/19 10:20:04;;;;;;;20.70;13.68;;;14.30;99.90;;;;;;5029326;28;20049;-79
2023/02/19 10:23:12;;;;;;;19.35;13.93;;;14.30;99.90;;;;;;5030018;28;20044;-78
2023/02/19 10:26:16;;;;;;;22.05;14.30;;;14.30;99.90;;;;;;5029290;28;20056;-78
2023/02/19 10:29:21;;;;;;;23.42;13.38;;;14.30;99.90;;;;;;5029333;28;20044;-78
2023/02/19 10:32:26;;;;;;;16.98;12.00;;;14.30;99.90;;;;;;5029849;28;20049;-80
2023/02/19 10:35:35;;;;;;;19.80;11.30;;;14.40;99.90;;;;;;5028233;28;20512;-79
2023/02/19 10:38:45;;;;;;;14.27;10.23;;;14.40;99.90;;;;;;5029503;28;20040;-77
2023/02/19 10:41:53;;;;;;;19.33;12.80;;;14.40;99.90;;;;;;5029647;28;20049;-77
2023/02/19 10:45:00;;;;;;;19.17;11.73;;;14.50;99.90;;;;;;5028886;28;20049;-79
2023/02/19 10:48:08;;;;;;;20.98;12.80;;;14.50;99.90;;;;;;5030310;28;20057;-77
2023/02/19 10:51:20;;;;;;;20.88;10.82;;;14.50;99.90;;;;;;5029320;28;20040;-79
2023/02/19 10:54:30;;;;;;;17.20;9.88;;;14.60;99.90;;;;;;5029580;28;20056;-79
2023/02/19 10:57:36;;;;;;;16.25;10.05;;;14.70;99.80;;;;;;5029557;28;20040;-79
2023/02/19 11:00:40;;;;;;;12.70;8.95;;;14.70;99.60;;;;;;5029804;28;20052;-78
2023/02/19 11:03:46;;;;;;;12.00;8.15;;;14.70;99.40;;;;;;5030121;28;20048;-77
2023/02/19 11:06:50;;;;;;;12.57;8.75;;;14.80;99.30;;;;;;5029673;28;20048;-80
2023/02/19 11:09:55;;;;;;;12.63;9.52;;;14.80;99.00;;;;;;5017494;28;20049;-80
2023/02/19 11:13:04;;;;;;;13.55;9.05;;;14.80;98.70;;;;;;5029615;28;20053;-80
2023/02/19 11:16:09;;;;;;;12.95;8.73;;;14.80;98.60;;;;;;5030668;28;20060;-79
2023/02/19 11:19:43;;;;;;;19.90;9.75;;;14.80;98.50;;;;;;5017235;28;20056;-79
2023/02/19 11:22:48;;;;;;;12.38;8.50;;;14.80;98.20;;;;;;5029600;28;20044;-79
2023/02/19 11:25:54;;;;;;;13.55;7.80;;;14.90;98.40;;;;;;5030103;28;20079;-80
2023/02/19 11:29:10;;;;;;;16.42;8.77;;;14.90;98.30;;;;;;5029811;28;20044;-79
2023/02/19 11:32:20;;;;;;;13.73;8.48;;;14.90;98.20;;;;;;5029660;28;20044;-79
2023/02/19 11:35:24;;;;;;;13.00;8.07;;;14.90;98.00;;;;;;5030422;28;20062;-78
2023/02/19 11:38:28;;;;;;;16.48;9.95;;;14.90;97.90;;;;;;5029953;28;20044;-78
2023/02/19 11:42:02;;;;;;;21.55;10.32;;;15.00;98.00;;;;;;5029833;28;20508;-80
2023/02/19 11:45:12;;;;;;;19.33;10.38;;;15.00;98.00;;;;;;5030259;28;20052;-78
2023/02/19 11:48:33;;;;;;;15.00;8.70;;;15.00;98.00;;;;;;5029594;28;20123;-79
2023/02/19 11:51:43;;;;;;;12.95;9.02;;;15.00;98.00;;;;;;5028581;28;20040;-78
2023/02/19 11:54:54;;;;;;;11.85;8.75;;;15.00;98.00;;;;;;5029264;28;20048;-78
2023/02/19 11:58:23;;;;;;;13.55;8.57;;;15.00;97.90;;;;;;5029594;28;20040;-79
2023/02/19 12:01:58;;;;;;;17.98;9.48;;;15.00;98.00;;;;;;5028934;28;20057;-79
2023/02/19 12:05:47;;;;;;;12.95;9.05;;;15.10;98.00;;;;;;5029313;28;20057;-80
2023/02/19 12:09:06;;;;;;;10.88;8.27;;;15.10;97.80;;;;;;5028412;28;20068;-78
2023/02/19 12:12:26;;;;;;;13.43;8.82;;;15.10;97.90;;;;;;5028695;28;20040;-78
2023/02/19 12:15:57;;;;;;;13.95;9.13;;;15.10;97.90;;;;;;5028150;28;20071;-78
2023/02/19 12:19:01;;;;;;;12.90;8.07;;;15.10;97.90;;;;;;5028422;28;20111;-78
2023/02/19 12:22:15;;;;;;;11.95;7.82;;;15.10;97.90;;;;;;5028629;28;20048;-79
2023/02/19 12:26:07;;;;;;;12.10;7.95;;;15.10;97.90;;;;;;5028013;28;20041;-80
2023/02/19 12:29:26;;;;;;;15.07;8.82;;;15.10;97.80;;;;;;5033478;28;20519;-79
2023/02/19 12:32:36;;;;;;;22.77;9.02;;;15.10;97.80;;;;;;5028221;28;20049;-79
2023/02/19 12:35:55;;;;;;;11.88;9.32;;;15.00;97.70;;;;;;5027714;28;20044;-79
2023/02/19 12:39:29;;;;;;;17.83;10.90;;;15.20;97.70;;;;;;5028201;28;20040;-80
2023/02/19 12:42:50;;;;;;;15.57;10.82;;;15.20;97.60;;;;;;5028792;28;20045;-78
2023/02/19 12:45:59;;;;;;;13.95;9.35;;;15.20;97.80;;;;;;5028242;28;20385;-79
2023/02/19 12:49:09;;;;;;;17.10;10.55;;;15.20;97.90;;;;;;5028194;28;20044;-79
2023/02/19 12:52:25;;;;;;;14.18;10.02;;;15.30;98.00;;;;;;5028205;28;20520;-78
2023/02/19 12:55:37;;;;;;;14.60;10.55;;;15.30;98.20;;;;;;5028817;28;20377;-79
2023/02/19 12:58:52;;;;;;;15.38;9.43;;;15.30;97.90;;;;;;5030185;28;20542;-79
2023/02/19 13:02:21;;;;;;;16.50;8.50;;;15.30;97.80;;;;;;5031758;28;20065;-78
2023/02/19 13:05:53;;;;;;;17.40;8.93;;;15.40;97.60;;;;;;5031907;28;20049;-77
2023/02/19 13:09:23;;;;;;;15.38;7.90;;;15.40;97.40;;;;;;5031693;28;20049;-78
2023/02/19 13:12:41;;;;;;;15.82;8.27;;;15.40;97.40;;;;;;5031848;28;20036;-79
2023/02/19 13:15:51;;;;;;;12.82;8.65;;;15.40;97.50;;;;;;5030453;28;20057;-79
2023/02/19 13:19:01;;;;;;;12.32;9.35;;;15.40;97.40;;;;;;5030262;28;20044;-77
2023/02/19 13:26:01;;;;;;;14.43;8.95;;;15.40;97.40;;;;;;5031482;28;20048;-78
2023/02/19 13:29:11;;;;;;;22.88;13.75;;;15.50;97.40;;;;;;5031152;28;20052;-77
2023/02/19 13:32:21;;;;;;;14.98;11.30;;;15.50;97.40;;;;;;5031120;28;20155;-77
2023/02/19 13:35:56;;;;;;;10.85;7.82;;;15.60;97.30;;;;;;5030962;28;20056;-80
2023/02/19 13:39:04;;;;;;;21.00;13.70;;;15.60;97.00;;;;;;5031570;28;20389;-78
2023/02/19 13:42:30;;;;;;;14.93;9.48;;;15.60;97.20;;;;;;5031567;28;20037;-79
2023/02/19 13:45:41;;;;;;;15.52;8.75;;;15.60;97.30;;;;;;5032341;28;20056;-79
2023/02/19 13:48:45;;;;;;;16.98;7.75;;;15.70;97.00;;;;;;5031344;28;20049;-80
2023/02/19 13:52:16;;;;;;;12.65;8.05;;;15.60;97.20;;;;;;5029986;28;20112;-78
2023/02/19 13:55:42;;;;;;;17.45;11.30;;;15.70;97.20;;;;;;5033159;28;20056;-79
2023/02/19 13:59:17;;;;;;;15.23;9.90;;;15.60;97.20;;;;;;5030312;28;20045;-79
2023/02/19 14:02:21;;;;;;;12.50;8.45;;;15.50;97.20;;;;;;5031065;28;20036;-79
2023/02/19 14:06:00;;;;;;;12.50;9.00;;;15.50;97.30;;;;;;5030954;28;20048;-79
2023/02/19 14:09:38;;;;;;;12.63;7.43;;;15.50;97.40;;;;;;5030841;28;20040;-81
2023/02/19 14:12:41;;;;;;;15.68;8.82;;;15.40;97.40;;;;;;5031364;28;20041;-85
2023/02/19 14:15:50;;;;;;;13.05;8.07;;;15.40;97.40;;;;;;5032857;28;20057;-82
2023/02/19 14:18:55;;;;;;;15.77;8.23;;;15.40;97.40;;;;;;5031981;28;20052;-68
2023/02/19 14:21:59;;;;;;;13.95;8.27;;;15.30;97.40;;;;;;5030355;28;20508;-64
2023/02/19 14:25:08;;;;;;;12.00;7.75;;;15.30;97.40;;;;;;5029993;28;20044;-65
2023/02/19 14:28:18;;;;;;;13.18;9.20;;;15.30;97.30;;;;;;5029999;28;20064;-63
2023/02/19 14:31:29;;;;;;;12.25;8.88;;;15.30;97.30;;;;;;5030052;28;20040;-63
2023/02/19 14:34:34;;;;;;;13.15;8.80;;;15.30;97.30;;;;;;5029638;28;20076;-62
2023/02/19 14:37:38;;;;;;;15.98;8.27;;;15.30;97.30;;;;;;5029623;28;20044;-62
2023/02/19 14:40:46;;;;;;;11.60;7.43;;;15.30;97.20;;;;;;5029771;28;20040;-61
2023/02/19 14:43:55;;;;;;;10.20;7.03;;;15.30;97.10;;;;;;5030226;28;20040;-62
2023/02/19 14:47:04;;;;;;;10.40;6.78;;;15.30;97.20;;;;;;5029710;28;20060;-62
2023/02/19 14:50:45;;;;;;;17.00;9.35;;;15.20;97.20;;;;;;5029498;28;20056;-61
2023/02/19 14:53:50;;;;;;;20.20;12.50;;;15.20;97.30;;;;;;5041159;28;20072;-62
2023/02/19 14:56:57;;;;;;;19.20;11.68;;;15.20;97.50;;;;;;5029867;28;20061;-62
2023/02/19 15:00:20;;;;;;;24.17;12.35;;;15.20;97.70;;;;;;5029445;28;20048;-61
2023/02/19 15:03:32;;;;;;;17.15;10.60;;;15.20;98.00;;;;;;5029350;28;20048;-63
2023/02/19 15:06:36;;;;;;;15.52;9.02;;;15.10;98.10;;;;;;5029845;28;20040;-79
2023/02/19 15:09:48;;;;;;;11.35;7.68;;;15.10;98.20;;;;;;5028962;28;20373;-79
2023/02/19 15:12:56;;;;;;;14.77;9.32;;;15.00;98.00;;;;;;5028294;28;20401;-79
2023/02/19 15:15:59;;;;;;;15.55;7.68;;;14.90;97.90;;;;;;5028170;28;20082;-79
2023/02/19 15:19:06;;;;;;;12.38;7.35;;;14.90;97.60;;;;;;5027479;28;20049;-79
2023/02/19 15:22:21;;;;;;;15.27;7.57;;;14.80;97.40;;;;;;5026123;28;20049;-79
2023/02/19 15:25:37;;;;;;;18.75;7.30;;;14.80;97.30;;;;;;5027417;28;20399;-79
2023/02/19 15:28:41;;;;;;;16.05;8.07;;;14.70;97.30;;;;;;5027723;28;20048;-79
2023/02/19 15:31:47;;;;;;;11.10;7.40;;;14.80;97.10;;;;;;5028416;28;20048;-78
2023/02/19 15:35:00;;;;;;;15.65;7.68;;;14.70;97.00;;;;;;5028588;28;20053;-79
2023/02/19 15:38:10;;;;;;;15.38;9.38;;;14.70;97.00;;;;;;5028987;28;20412;-80
2023/02/19 15:41:21;;;;;;;15.05;10.55;;;14.70;97.00;;;;;;5028710;28;20053;-80
2023/02/19 15:44:39;;;;;;;17.48;10.63;;;14.60;97.20;;;;;;5027835;28;20044;-80
2023/02/19 15:47:50;;;;;;;19.58;10.90;;;14.60;97.30;;;;;;5029098;28;20032;-79
2023/02/19 15:51:06;;;;;;;15.55;9.65;;;14.60;97.50;;;;;;5027707;28;20052;-79
2023/02/19 15:54:35;;;;;;;16.83;9.75;;;14.60;97.60;;;;;;5017934;28;20052;-81
2023/02/19 15:57:44;;;;;;;15.20;9.50;;;14.60;97.70;;;;;;5028458;28;20044;-81
2023/02/19 16:00:55;;;;;;;10.57;7.97;;;14.60;97.70;;;;;;5016544;28;20060;-81
2023/02/19 16:04:00;;;;;;;16.75;7.93;;;14.60;97.80;;;;;;5029135;28;20056;-78
2023/02/19 16:07:05;;;;;;;15.85;8.55;;;14.60;97.70;;;;;;5028611;28;20052;-79
2023/02/19 16:10:23;;;;;;;16.35;8.95;;;14.60;97.70;;;;;;5028317;28;20500;-79
2023/02/19 16:13:30;;;;;;;12.55;8.57;;;14.60;97.70;;;;;;5028774;28;20520;-78
2023/02/19 16:16:39;;;;;;;15.88;8.85;;;14.60;97.80;;;;;;5028255;28;20056;-78
2023/02/19 16:19:58;;;;;;;15.48;9.90;;;14.60;97.90;;;;;;5027679;28;20586;-77
2023/02/19 16:23:09;;;;;;;18.67;10.50;;;14.50;97.80;;;;;;5028586;28;20048;-78
2023/02/19 16:26:14;;;;;;;15.80;10.93;;;14.50;98.10;;;;;;5028739;28;20048;-79
2023/02/19 16:29:27;;;;;;;16.63;10.18;;;14.50;98.20;;;;;;5028866;28;20045;-79
2023/02/19 16:32:32;;;;;;;18.10;10.38;;;14.50;98.40;;;;;;5027986;28;20045;-79
2023/02/19 16:35:41;;;;;;;19.50;10.98;;;14.50;98.60;;;;;;5026356;28;20056;-79
2023/02/19 16:39:07;;;;;;;18.92;11.85;;;14.50;98.90;;;;;;5028107;28;20040;-78
2023/02/19 16:42:13;;;;;;;20.95;12.57;;;14.50;99.20;;;;;;5028142;28;20037;-79
2023/02/19 16:45:17;;;;;;;20.15;13.85;;;14.40;99.40;;;;;;5028191;28;20611;-77
2023/02/19 16:48:22;;;;;;;26.20;14.60;;;14.40;99.90;;;;;;5027542;28;20033;-78
2023/02/19 16:51:26;;;;;;;24.45;14.77;;;14.40;99.60;;;;;;5027493;28;20045;-78
2023/02/19 16:54:31;;;;;;;21.92;14.23;;;14.30;99.70;;;;;;5026758;28;20057;-79